Holcomb, MO (63852)

6:55 PM CST on December 10, 2016 (GMT -0600)
Peach Orchard | | Change Station

Elev 263 ft 36.37 °N, 89.94 °W | Updated 4 minutes ago

Overcast
Overcast
36.3 °F
Feels Like 36 °F
N
2.0
Wind Variable Wind from SSE
Gusts 2.0 mph

Today
High -- | Low -- °F
--% Chance of Precip.
Yesterday
High -- | Low -- °F
Precip. -- in
Pressure 30.39 in
Visibility 10.0 miles
Clouds Overcast 6000 ft
Windchill 36 °F
Dew Point 25 °F
Humidity 64%
Rainfall 0.00 in
Snow Depth Not available.
7:01 AM 4:45 PM
Waxing Gibbous, 87% visible
METAR KPOF 102353Z AUTO 11005KT 10SM OVC060 02/M05 A3037 RMK AO2 PRESFR SLP291 T00171050 10028 20011 58020 TSNO
Pressure 30.39 in
Visibility 10.0 miles
Clouds Overcast 6000 ft
Windchill 36 °F
Dew Point 25 °F
Humidity 64%
Rainfall 0.00 in
Snow Depth Not available.
7:01 AM 4:45 PM
Waxing Gibbous, 87% visible
METAR KPOF 102353Z AUTO 11005KT 10SM OVC060 02/M05 A3037 RMK AO2 PRESFR SLP291 T00171050 10028 20011 58020 TSNO

10-Day Weather Forecast

Almanac

Astronomy

Dec. 10, 2016 Rise Set
Actual Time
Civil Twilight
Nautical Twilight
Astronomical Twilight
Moon
Length of Visible Light
Length of Day
Tomorrow will be .
, % of the Moon is Illuminated

Today's Extremes

State Highs State Lows

Community

WunderPhotos

Upload Photos

1,956,685 photos uploaded!

WunderBlog® & News

Nearby

Air Quality

  Air Quality AQ Index Pollutant
Not available.

Snow Depth

Station Depth Elevation

Earthquake Activity

City Distance Mag. Time & Date
Minimum magnitude displayed is 2.5.

Coastal Water Temperatures

Place Temperature

Stations

Nearby Weather Stations

Station Location Temp. Windchill Dew Point Humidity Wind Precip. Elev Updated Type
                   

Watches & Warnings

There are currently no watches in effect.